Terminal Aerodrome Forecast
Issued by NWS

Home | Current Version | Previous Version | Text Only | Print | Product List | Glossary On
Versions: 1 2 3 4 5 6 7 8 9 10 11 12 13 14 15 16 17 18 19 20 21 22 23 24 25 26 27 28 29 30 31 32 33 34 35 36
451
FTUS43 KDLH 232337
TAFHYR
TAF
KHYR 232337Z 2400/2424 36008KT P6SM BKN120
     FM240800 05006KT P6SM VCSH SCT015 OVC050
     FM241100 05010G15KT 4SM -SN SCT012 OVC020
     FM242000 02010G17KT 2SM -SN OVC025=

USA.gov is the U.S. government's official web portal to all federal, state and local government web resources and services.